sensor_id;sensor_type;location;lat;lon;timestamp;P1;durP1;ratioP1;P2;durP2;ratioP2
3095;SDS011;1558;42.700;23.360;2024-03-22T00:00:48;27.13;;;20.83;;
3095;SDS011;1558;42.700;23.360;2024-03-22T00:03:15;26.60;;;21.50;;
3095;SDS011;1558;42.700;23.360;2024-03-22T00:05:44;23.50;;;19.87;;
3095;SDS011;1558;42.700;23.360;2024-03-22T00:08:10;26.80;;;19.90;;
3095;SDS011;1558;42.700;23.360;2024-03-22T00:10:37;27.70;;;21.47;;
3095;SDS011;1558;42.700;23.360;2024-03-22T00:13:04;35.70;;;25.57;;
3095;SDS011;1558;42.700;23.360;2024-03-22T00:15:31;31.63;;;22.67;;
3095;SDS011;1558;42.700;23.360;2024-03-22T00:17:57;36.00;;;23.00;;
3095;SDS011;1558;42.700;23.360;2024-03-22T00:20:25;32.33;;;23.30;;
3095;SDS011;1558;42.700;23.360;2024-03-22T00:22:51;35.43;;;23.73;;
3095;SDS011;1558;42.700;23.360;2024-03-22T00:25:19;31.20;;;23.67;;
3095;SDS011;1558;42.700;23.360;2024-03-22T00:27:45;30.33;;;24.20;;
3095;SDS011;1558;42.700;23.360;2024-03-22T00:30:12;31.43;;;25.20;;
3095;SDS011;1558;42.700;23.360;2024-03-22T00:32:40;34.73;;;25.77;;
3095;SDS011;1558;42.700;23.360;2024-03-22T00:35:09;38.50;;;26.30;;
3095;SDS011;1558;42.700;23.360;2024-03-22T00:37:37;36.67;;;26.07;;
3095;SDS011;1558;42.700;23.360;2024-03-22T00:40:05;33.03;;;24.07;;
3095;SDS011;1558;42.700;23.360;2024-03-22T00:42:32;31.10;;;24.50;;
3095;SDS011;1558;42.700;23.360;2024-03-22T00:44:59;34.30;;;26.83;;
3095;SDS011;1558;42.700;23.360;2024-03-22T00:47:25;35.33;;;27.73;;
3095;SDS011;1558;42.700;23.360;2024-03-22T00:49:52;37.87;;;28.37;;
3095;SDS011;1558;42.700;23.360;2024-03-22T00:52:19;36.33;;;29.67;;
3095;SDS011;1558;42.700;23.360;2024-03-22T00:54:48;38.20;;;28.30;;
3095;SDS011;1558;42.700;23.360;2024-03-22T00:57:15;38.23;;;27.53;;
3095;SDS011;1558;42.700;23.360;2024-03-22T00:59:42;37.20;;;26.30;;
3095;SDS011;1558;42.700;23.360;2024-03-22T01:02:08;34.43;;;26.93;;
3095;SDS011;1558;42.700;23.360;2024-03-22T01:04:35;32.57;;;25.67;;
3095;SDS011;1558;42.700;23.360;2024-03-22T01:07:01;34.90;;;26.30;;
3095;SDS011;1558;42.700;23.360;2024-03-22T01:09:28;33.60;;;25.77;;
3095;SDS011;1558;42.700;23.360;2024-03-22T01:11:56;32.83;;;25.10;;
3095;SDS011;1558;42.700;23.360;2024-03-22T01:14:23;34.60;;;24.67;;
3095;SDS011;1558;42.700;23.360;2024-03-22T01:16:49;34.03;;;23.37;;
3095;SDS011;1558;42.700;23.360;2024-03-22T01:19:16;33.70;;;23.07;;
3095;SDS011;1558;42.700;23.360;2024-03-22T01:21:42;28.23;;;20.60;;
3095;SDS011;1558;42.700;23.360;2024-03-22T01:24:09;27.13;;;19.63;;
3095;SDS011;1558;42.700;23.360;2024-03-22T01:26:35;28.37;;;20.03;;
3095;SDS011;1558;42.700;23.360;2024-03-22T01:29:04;30.30;;;21.97;;
3095;SDS011;1558;42.700;23.360;2024-03-22T01:31:30;29.07;;;20.73;;
3095;SDS011;1558;42.700;23.360;2024-03-22T01:33:57;27.97;;;20.90;;
3095;SDS011;1558;42.700;23.360;2024-03-22T01:36:23;29.23;;;22.20;;
3095;SDS011;1558;42.700;23.360;2024-03-22T01:38:50;28.40;;;21.73;;
3095;SDS011;1558;42.700;23.360;2024-03-22T01:41:16;30.03;;;22.10;;
3095;SDS011;1558;42.700;23.360;2024-03-22T01:43:43;27.53;;;21.03;;
3095;SDS011;1558;42.700;23.360;2024-03-22T01:46:11;26.50;;;19.27;;
3095;SDS011;1558;42.700;23.360;2024-03-22T01:48:38;25.37;;;18.37;;
3095;SDS011;1558;42.700;23.360;2024-03-22T01:51:05;33.60;;;22.73;;
3095;SDS011;1558;42.700;23.360;2024-03-22T01:53:32;34.27;;;22.77;;
3095;SDS011;1558;42.700;23.360;2024-03-22T01:56:00;27.07;;;21.23;;
3095;SDS011;1558;42.700;23.360;2024-03-22T01:58:28;26.00;;;20.13;;
3095;SDS011;1558;42.700;23.360;2024-03-22T02:00:54;25.83;;;18.23;;
3095;SDS011;1558;42.700;23.360;2024-03-22T02:03:23;27.43;;;20.87;;
3095;SDS011;1558;42.700;23.360;2024-03-22T02:05:49;28.27;;;20.33;;
3095;SDS011;1558;42.700;23.360;2024-03-22T02:08:16;29.63;;;21.73;;
3095;SDS011;1558;42.700;23.360;2024-03-22T02:10:42;32.23;;;22.27;;
3095;SDS011;1558;42.700;23.360;2024-03-22T02:13:10;27.83;;;20.23;;
3095;SDS011;1558;42.700;23.360;2024-03-22T02:15:36;34.47;;;23.43;;
3095;SDS011;1558;42.700;23.360;2024-03-22T02:18:03;34.27;;;23.43;;
3095;SDS011;1558;42.700;23.360;2024-03-22T02:20:31;30.43;;;22.53;;
3095;SDS011;1558;42.700;23.360;2024-03-22T02:22:58;28.43;;;21.17;;
3095;SDS011;1558;42.700;23.360;2024-03-22T02:25:26;32.70;;;22.77;;
3095;SDS011;1558;42.700;23.360;2024-03-22T02:27:53;28.83;;;22.63;;
3095;SDS011;1558;42.700;23.360;2024-03-22T02:30:20;31.77;;;24.23;;
3095;SDS011;1558;42.700;23.360;2024-03-22T02:32:47;34.90;;;24.33;;
3095;SDS011;1558;42.700;23.360;2024-03-22T02:35:14;32.23;;;23.77;;
3095;SDS011;1558;42.700;23.360;2024-03-22T02:37:41;36.77;;;23.67;;
3095;SDS011;1558;42.700;23.360;2024-03-22T02:40:07;29.63;;;22.70;;
3095;SDS011;1558;42.700;23.360;2024-03-22T02:42:37;33.03;;;22.27;;
3095;SDS011;1558;42.700;23.360;2024-03-22T02:45:04;28.87;;;19.73;;
3095;SDS011;1558;42.700;23.360;2024-03-22T02:47:30;31.00;;;20.27;;
3095;SDS011;1558;42.700;23.360;2024-03-22T02:49:58;29.27;;;21.73;;
3095;SDS011;1558;42.700;23.360;2024-03-22T02:52:24;25.20;;;18.77;;
3095;SDS011;1558;42.700;23.360;2024-03-22T02:54:51;24.83;;;19.37;;
3095;SDS011;1558;42.700;23.360;2024-03-22T02:57:17;21.97;;;18.47;;
3095;SDS011;1558;42.700;23.360;2024-03-22T02:59:46;21.73;;;18.37;;
3095;SDS011;1558;42.700;23.360;2024-03-22T03:02:12;23.13;;;16.93;;
3095;SDS011;1558;42.700;23.360;2024-03-22T03:04:39;25.20;;;18.60;;
3095;SDS011;1558;42.700;23.360;2024-03-22T03:07:05;27.43;;;17.53;;
3095;SDS011;1558;42.700;23.360;2024-03-22T03:09:33;21.73;;;16.07;;
3095;SDS011;1558;42.700;23.360;2024-03-22T03:11:59;20.27;;;14.00;;
3095;SDS011;1558;42.700;23.360;2024-03-22T03:14:26;20.90;;;14.90;;
3095;SDS011;1558;42.700;23.360;2024-03-22T03:16:54;19.80;;;13.80;;
3095;SDS011;1558;42.700;23.360;2024-03-22T03:19:21;19.10;;;13.30;;
3095;SDS011;1558;42.700;23.360;2024-03-22T03:21:47;16.53;;;12.37;;
3095;SDS011;1558;42.700;23.360;2024-03-22T03:24:14;19.60;;;13.20;;
3095;SDS011;1558;42.700;23.360;2024-03-22T03:26:40;19.23;;;14.07;;
3095;SDS011;1558;42.700;23.360;2024-03-22T03:29:08;17.90;;;13.07;;
3095;SDS011;1558;42.700;23.360;2024-03-22T03:31:35;20.23;;;13.87;;
3095;SDS011;1558;42.700;23.360;2024-03-22T03:34:03;16.63;;;12.37;;
3095;SDS011;1558;42.700;23.360;2024-03-22T03:36:29;16.30;;;13.50;;
3095;SDS011;1558;42.700;23.360;2024-03-22T03:38:57;15.80;;;12.67;;
3095;SDS011;1558;42.700;23.360;2024-03-22T03:41:23;16.40;;;11.87;;
3095;SDS011;1558;42.700;23.360;2024-03-22T03:43:50;14.93;;;12.00;;
3095;SDS011;1558;42.700;23.360;2024-03-22T03:46:16;14.70;;;12.27;;
3095;SDS011;1558;42.700;23.360;2024-03-22T03:48:43;19.57;;;12.60;;
3095;SDS011;1558;42.700;23.360;2024-03-22T03:51:11;16.93;;;12.27;;
3095;SDS011;1558;42.700;23.360;2024-03-22T03:53:38;23.53;;;14.33;;
3095;SDS011;1558;42.700;23.360;2024-03-22T03:56:04;19.40;;;13.70;;
3095;SDS011;1558;42.700;23.360;2024-03-22T03:58:31;21.77;;;14.67;;
3095;SDS011;1558;42.700;23.360;2024-03-22T04:00:57;21.93;;;14.53;;
3095;SDS011;1558;42.700;23.360;2024-03-22T04:03:24;20.93;;;15.10;;
3095;SDS011;1558;42.700;23.360;2024-03-22T04:05:56;21.87;;;14.70;;
3095;SDS011;1558;42.700;23.360;2024-03-22T04:08:24;20.90;;;14.67;;
3095;SDS011;1558;42.700;23.360;2024-03-22T04:10:51;18.37;;;14.20;;
3095;SDS011;1558;42.700;23.360;2024-03-22T04:13:19;18.80;;;14.40;;
3095;SDS011;1558;42.700;23.360;2024-03-22T04:15:45;27.40;;;14.80;;
3095;SDS011;1558;42.700;23.360;2024-03-22T04:18:12;23.90;;;15.27;;
3095;SDS011;1558;42.700;23.360;2024-03-22T04:20:38;25.03;;;14.30;;
3095;SDS011;1558;42.700;23.360;2024-03-22T04:23:05;21.13;;;14.57;;
3095;SDS011;1558;42.700;23.360;2024-03-22T04:25:32;27.50;;;15.60;;
3095;SDS011;1558;42.700;23.360;2024-03-22T04:28:00;25.17;;;14.93;;
3095;SDS011;1558;42.700;23.360;2024-03-22T04:30:26;20.23;;;14.27;;
3095;SDS011;1558;42.700;23.360;2024-03-22T04:32:53;20.13;;;13.80;;
3095;SDS011;1558;42.700;23.360;2024-03-22T04:35:19;20.37;;;13.57;;
3095;SDS011;1558;42.700;23.360;2024-03-22T04:37:46;26.33;;;15.40;;
3095;SDS011;1558;42.700;23.360;2024-03-22T04:40:13;29.07;;;15.63;;
3095;SDS011;1558;42.700;23.360;2024-03-22T04:42:42;22.53;;;13.57;;
3095;SDS011;1558;42.700;23.360;2024-03-22T04:45:09;28.80;;;14.90;;
3095;SDS011;1558;42.700;23.360;2024-03-22T04:47:36;25.00;;;16.63;;
3095;SDS011;1558;42.700;23.360;2024-03-22T04:50:03;40.43;;;18.83;;
3095;SDS011;1558;42.700;23.360;2024-03-22T04:52:31;32.23;;;18.20;;
3095;SDS011;1558;42.700;23.360;2024-03-22T04:54:57;27.07;;;15.53;;
3095;SDS011;1558;42.700;23.360;2024-03-22T04:57:24;36.27;;;18.00;;
3095;SDS011;1558;42.700;23.360;2024-03-22T04:59:52;26.43;;;17.00;;
3095;SDS011;1558;42.700;23.360;2024-03-22T05:02:19;34.07;;;18.40;;
3095;SDS011;1558;42.700;23.360;2024-03-22T05:04:45;33.37;;;18.10;;
3095;SDS011;1558;42.700;23.360;2024-03-22T05:07:15;44.87;;;19.37;;
3095;SDS011;1558;42.700;23.360;2024-03-22T05:09:41;35.23;;;18.57;;
3095;SDS011;1558;42.700;23.360;2024-03-22T05:12:08;33.07;;;21.10;;
3095;SDS011;1558;42.700;23.360;2024-03-22T05:14:35;32.33;;;18.30;;
3095;SDS011;1558;42.700;23.360;2024-03-22T05:17:04;34.67;;;19.00;;
3095;SDS011;1558;42.700;23.360;2024-03-22T05:19:30;44.00;;;24.90;;
3095;SDS011;1558;42.700;23.360;2024-03-22T05:21:58;46.83;;;22.67;;
3095;SDS011;1558;42.700;23.360;2024-03-22T05:24:25;34.73;;;21.13;;
3095;SDS011;1558;42.700;23.360;2024-03-22T05:26:52;29.93;;;18.30;;
3095;SDS011;1558;42.700;23.360;2024-03-22T05:29:19;34.87;;;20.77;;
3095;SDS011;1558;42.700;23.360;2024-03-22T05:31:46;32.83;;;19.07;;
3095;SDS011;1558;42.700;23.360;2024-03-22T05:34:14;30.57;;;18.20;;
3095;SDS011;1558;42.700;23.360;2024-03-22T05:36:42;32.17;;;18.90;;
3095;SDS011;1558;42.700;23.360;2024-03-22T05:39:08;31.47;;;18.53;;
3095;SDS011;1558;42.700;23.360;2024-03-22T05:41:37;30.83;;;16.90;;
3095;SDS011;1558;42.700;23.360;2024-03-22T05:44:04;25.63;;;15.97;;
3095;SDS011;1558;42.700;23.360;2024-03-22T05:46:31;28.77;;;16.13;;
3095;SDS011;1558;42.700;23.360;2024-03-22T05:48:57;23.40;;;16.00;;
3095;SDS011;1558;42.700;23.360;2024-03-22T05:51:26;31.70;;;24.33;;
3095;SDS011;1558;42.700;23.360;2024-03-22T05:53:52;21.97;;;15.07;;
3095;SDS011;1558;42.700;23.360;2024-03-22T05:56:20;20.20;;;16.90;;
3095;SDS011;1558;42.700;23.360;2024-03-22T05:58:46;20.20;;;15.27;;
3095;SDS011;1558;42.700;23.360;2024-03-22T06:01:13;27.40;;;15.47;;
3095;SDS011;1558;42.700;23.360;2024-03-22T06:03:39;20.77;;;15.47;;
3095;SDS011;1558;42.700;23.360;2024-03-22T06:06:06;24.07;;;15.00;;
3095;SDS011;1558;42.700;23.360;2024-03-22T06:08:34;18.23;;;14.53;;
3095;SDS011;1558;42.700;23.360;2024-03-22T06:11:06;18.30;;;14.20;;
3095;SDS011;1558;42.700;23.360;2024-03-22T06:13:33;21.93;;;15.37;;
3095;SDS011;1558;42.700;23.360;2024-03-22T06:16:00;29.23;;;15.97;;
3095;SDS011;1558;42.700;23.360;2024-03-22T06:18:26;24.53;;;16.20;;
3095;SDS011;1558;42.700;23.360;2024-03-22T06:20:53;27.57;;;18.00;;
3095;SDS011;1558;42.700;23.360;2024-03-22T06:23:20;19.37;;;16.27;;
3095;SDS011;1558;42.700;23.360;2024-03-22T06:25:53;20.07;;;16.03;;
3095;SDS011;1558;42.700;23.360;2024-03-22T06:28:20;28.27;;;15.83;;
3095;SDS011;1558;42.700;23.360;2024-03-22T06:30:47;27.73;;;16.50;;
3095;SDS011;1558;42.700;23.360;2024-03-22T06:33:14;25.97;;;16.67;;
3095;SDS011;1558;42.700;23.360;2024-03-22T06:35:41;24.10;;;15.67;;
3095;SDS011;1558;42.700;23.360;2024-03-22T06:38:07;22.93;;;15.90;;
3095;SDS011;1558;42.700;23.360;2024-03-22T06:40:34;27.27;;;16.10;;
3095;SDS011;1558;42.700;23.360;2024-03-22T06:43:02;22.20;;;15.98;;
3095;SDS011;1558;42.700;23.360;2024-03-22T06:45:29;22.23;;;15.43;;
3095;SDS011;1558;42.700;23.360;2024-03-22T06:47:55;22.60;;;16.15;;
3095;SDS011;1558;42.700;23.360;2024-03-22T06:50:23;24.15;;;15.93;;
3095;SDS011;1558;42.700;23.360;2024-03-22T06:52:52;32.55;;;16.42;;
3095;SDS011;1558;42.700;23.360;2024-03-22T06:55:20;26.08;;;17.75;;
3095;SDS011;1558;42.700;23.360;2024-03-22T06:57:47;30.00;;;17.50;;
3095;SDS011;1558;42.700;23.360;2024-03-22T07:00:16;25.50;;;15.35;;
3095;SDS011;1558;42.700;23.360;2024-03-22T07:02:43;16.27;;;13.32;;
3095;SDS011;1558;42.700;23.360;2024-03-22T07:05:10;23.05;;;13.52;;
3095;SDS011;1558;42.700;23.360;2024-03-22T07:07:37;23.52;;;13.60;;
3095;SDS011;1558;42.700;23.360;2024-03-22T07:10:05;16.55;;;13.23;;
3095;SDS011;1558;42.700;23.360;2024-03-22T07:12:31;22.20;;;13.68;;
3095;SDS011;1558;42.700;23.360;2024-03-22T07:14:59;19.40;;;14.48;;
3095;SDS011;1558;42.700;23.360;2024-03-22T07:17:27;17.38;;;13.05;;
3095;SDS011;1558;42.700;23.360;2024-03-22T07:19:55;21.92;;;14.48;;
3095;SDS011;1558;42.700;23.360;2024-03-22T07:22:21;17.13;;;13.15;;
3095;SDS011;1558;42.700;23.360;2024-03-22T07:24:50;17.23;;;14.15;;
3095;SDS011;1558;42.700;23.360;2024-03-22T07:27:16;17.02;;;12.15;;
3095;SDS011;1558;42.700;23.360;2024-03-22T07:29:44;19.05;;;13.32;;
3095;SDS011;1558;42.700;23.360;2024-03-22T07:32:10;17.98;;;13.07;;
3095;SDS011;1558;42.700;23.360;2024-03-22T07:34:38;27.20;;;14.68;;
3095;SDS011;1558;42.700;23.360;2024-03-22T07:37:05;19.48;;;12.57;;
3095;SDS011;1558;42.700;23.360;2024-03-22T07:39:32;15.50;;;11.30;;
3095;SDS011;1558;42.700;23.360;2024-03-22T07:41:58;17.33;;;11.02;;
3095;SDS011;1558;42.700;23.360;2024-03-22T07:44:25;11.63;;;9.27;;
3095;SDS011;1558;42.700;23.360;2024-03-22T07:46:54;11.38;;;10.15;;
3095;SDS011;1558;42.700;23.360;2024-03-22T07:49:21;11.00;;;9.75;;
3095;SDS011;1558;42.700;23.360;2024-03-22T07:51:49;11.30;;;10.18;;
3095;SDS011;1558;42.700;23.360;2024-03-22T07:54:16;10.38;;;8.40;;
3095;SDS011;1558;42.700;23.360;2024-03-22T07:56:43;9.02;;;7.60;;
3095;SDS011;1558;42.700;23.360;2024-03-22T07:59:10;9.02;;;7.50;;
3095;SDS011;1558;42.700;23.360;2024-03-22T08:01:36;5.40;;;4.90;;
3095;SDS011;1558;42.700;23.360;2024-03-22T08:04:03;7.47;;;5.10;;
3095;SDS011;1558;42.700;23.360;2024-03-22T08:06:29;5.63;;;5.10;;
3095;SDS011;1558;42.700;23.360;2024-03-22T08:08:58;7.75;;;5.50;;
3095;SDS011;1558;42.700;23.360;2024-03-22T08:11:26;5.80;;;5.30;;
3095;SDS011;1558;42.700;23.360;2024-03-22T08:13:54;7.80;;;5.90;;
3095;SDS011;1558;42.700;23.360;2024-03-22T08:16:27;9.00;;;6.22;;
3095;SDS011;1558;42.700;23.360;2024-03-22T08:18:54;5.90;;;5.32;;
3095;SDS011;1558;42.700;23.360;2024-03-22T08:21:22;5.95;;;5.13;;
3095;SDS011;1558;42.700;23.360;2024-03-22T08:23:51;7.70;;;5.57;;
3095;SDS011;1558;42.700;23.360;2024-03-22T08:26:19;6.63;;;4.90;;
3095;SDS011;1558;42.700;23.360;2024-03-22T08:28:46;8.38;;;5.13;;
3095;SDS011;1558;42.700;23.360;2024-03-22T08:31:13;6.38;;;4.63;;
3095;SDS011;1558;42.700;23.360;2024-03-22T08:33:42;9.00;;;5.30;;
3095;SDS011;1558;42.700;23.360;2024-03-22T08:36:08;6.85;;;5.20;;
3095;SDS011;1558;42.700;23.360;2024-03-22T08:38:35;7.78;;;5.53;;
3095;SDS011;1558;42.700;23.360;2024-03-22T08:41:01;6.13;;;5.53;;
3095;SDS011;1558;42.700;23.360;2024-03-22T08:43:30;7.50;;;5.10;;
3095;SDS011;1558;42.700;23.360;2024-03-22T08:45:56;5.47;;;5.00;;
3095;SDS011;1558;42.700;23.360;2024-03-22T08:48:23;10.20;;;5.90;;
3095;SDS011;1558;42.700;23.360;2024-03-22T08:50:49;6.05;;;5.55;;
3095;SDS011;1558;42.700;23.360;2024-03-22T08:53:17;5.78;;;4.93;;
3095;SDS011;1558;42.700;23.360;2024-03-22T08:55:46;9.02;;;5.45;;
3095;SDS011;1558;42.700;23.360;2024-03-22T08:58:14;46.13;;;9.10;;
3095;SDS011;1558;42.700;23.360;2024-03-22T09:00:42;5.95;;;5.45;;
3095;SDS011;1558;42.700;23.360;2024-03-22T09:03:09;7.30;;;5.53;;
3095;SDS011;1558;42.700;23.360;2024-03-22T09:05:36;8.18;;;6.28;;
3095;SDS011;1558;42.700;23.360;2024-03-22T09:08:03;8.35;;;5.63;;
3095;SDS011;1558;42.700;23.360;2024-03-22T09:10:30;7.30;;;5.20;;
3095;SDS011;1558;42.700;23.360;2024-03-22T09:12:57;5.45;;;4.95;;
3095;SDS011;1558;42.700;23.360;2024-03-22T09:15:24;12.48;;;9.23;;
3095;SDS011;1558;42.700;23.360;2024-03-22T09:17:53;7.78;;;7.00;;
3095;SDS011;1558;42.700;23.360;2024-03-22T09:20:19;5.80;;;5.22;;
3095;SDS011;1558;42.700;23.360;2024-03-22T09:22:46;5.28;;;4.88;;
3095;SDS011;1558;42.700;23.360;2024-03-22T09:25:12;7.80;;;5.65;;
3095;SDS011;1558;42.700;23.360;2024-03-22T09:27:39;7.57;;;5.32;;
3095;SDS011;1558;42.700;23.360;2024-03-22T09:30:06;7.63;;;5.15;;
3095;SDS011;1558;42.700;23.360;2024-03-22T09:32:35;6.25;;;5.30;;
3095;SDS011;1558;42.700;23.360;2024-03-22T09:35:03;6.10;;;4.65;;
3095;SDS011;1558;42.700;23.360;2024-03-22T09:37:30;5.10;;;4.70;;
3095;SDS011;1558;42.700;23.360;2024-03-22T09:39:57;5.63;;;5.15;;
3095;SDS011;1558;42.700;23.360;2024-03-22T09:42:24;5.72;;;5.13;;
3095;SDS011;1558;42.700;23.360;2024-03-22T09:44:51;5.05;;;4.65;;
3095;SDS011;1558;42.700;23.360;2024-03-22T09:47:18;5.25;;;4.85;;
3095;SDS011;1558;42.700;23.360;2024-03-22T09:49:46;6.13;;;4.90;;
3095;SDS011;1558;42.700;23.360;2024-03-22T09:52:16;7.38;;;5.30;;
3095;SDS011;1558;42.700;23.360;2024-03-22T09:54:46;5.72;;;4.97;;
3095;SDS011;1558;42.700;23.360;2024-03-22T09:57:13;7.03;;;6.10;;
3095;SDS011;1558;42.700;23.360;2024-03-22T09:59:41;5.28;;;4.80;;
3095;SDS011;1558;42.700;23.360;2024-03-22T10:02:09;5.43;;;4.88;;
3095;SDS011;1558;42.700;23.360;2024-03-22T10:04:37;6.30;;;4.55;;
3095;SDS011;1558;42.700;23.360;2024-03-22T10:07:04;5.25;;;4.75;;
3095;SDS011;1558;42.700;23.360;2024-03-22T10:09:32;5.32;;;4.93;;
3095;SDS011;1558;42.700;23.360;2024-03-22T10:11:59;5.40;;;4.90;;
3095;SDS011;1558;42.700;23.360;2024-03-22T10:14:26;5.07;;;4.63;;
3095;SDS011;1558;42.700;23.360;2024-03-22T10:16:53;6.47;;;4.63;;
3095;SDS011;1558;42.700;23.360;2024-03-22T10:19:19;4.90;;;4.45;;
3095;SDS011;1558;42.700;23.360;2024-03-22T10:21:47;4.90;;;4.50;;
3095;SDS011;1558;42.700;23.360;2024-03-22T10:24:24;5.15;;;4.65;;
3095;SDS011;1558;42.700;23.360;2024-03-22T10:26:53;5.97;;;5.15;;
3095;SDS011;1558;42.700;23.360;2024-03-22T10:29:19;4.78;;;4.15;;
3095;SDS011;1558;42.700;23.360;2024-03-22T10:31:47;4.70;;;4.30;;
3095;SDS011;1558;42.700;23.360;2024-03-22T10:34:14;6.28;;;5.00;;
3095;SDS011;1558;42.700;23.360;2024-03-22T10:36:41;4.70;;;4.30;;
3095;SDS011;1558;42.700;23.360;2024-03-22T10:39:09;12.18;;;5.20;;
3095;SDS011;1558;42.700;23.360;2024-03-22T10:41:39;5.78;;;4.40;;
3095;SDS011;1558;42.700;23.360;2024-03-22T10:44:07;6.10;;;4.75;;
3095;SDS011;1558;42.700;23.360;2024-03-22T10:46:38;5.47;;;4.80;;
3095;SDS011;1558;42.700;23.360;2024-03-22T10:49:07;5.90;;;4.75;;
3095;SDS011;1558;42.700;23.360;2024-03-22T10:51:35;8.23;;;4.57;;
3095;SDS011;1558;42.700;23.360;2024-03-22T10:54:02;5.47;;;4.60;;
3095;SDS011;1558;42.700;23.360;2024-03-22T10:56:30;5.65;;;5.03;;
3095;SDS011;1558;42.700;23.360;2024-03-22T10:58:57;5.60;;;5.13;;
3095;SDS011;1558;42.700;23.360;2024-03-22T11:01:32;6.45;;;5.93;;
3095;SDS011;1558;42.700;23.360;2024-03-22T11:04:05;4.80;;;4.40;;
3095;SDS011;1558;42.700;23.360;2024-03-22T11:06:36;5.55;;;4.70;;
3095;SDS011;1558;42.700;23.360;2024-03-22T11:09:03;5.13;;;4.63;;
3095;SDS011;1558;42.700;23.360;2024-03-22T11:11:30;4.50;;;4.10;;
3095;SDS011;1558;42.700;23.360;2024-03-22T11:14:02;5.65;;;5.10;;
3095;SDS011;1558;42.700;23.360;2024-03-22T11:16:30;5.95;;;4.95;;
3095;SDS011;1558;42.700;23.360;2024-03-22T11:18:57;9.23;;;5.25;;
3095;SDS011;1558;42.700;23.360;2024-03-22T11:21:25;7.05;;;4.60;;
3095;SDS011;1558;42.700;23.360;2024-03-22T11:23:51;4.88;;;4.32;;
3095;SDS011;1558;42.700;23.360;2024-03-22T11:26:19;4.10;;;3.80;;
3095;SDS011;1558;42.700;23.360;2024-03-22T11:28:45;4.90;;;4.35;;
3095;SDS011;1558;42.700;23.360;2024-03-22T11:31:13;8.35;;;5.50;;
3095;SDS011;1558;42.700;23.360;2024-03-22T11:33:40;6.03;;;4.90;;
3095;SDS011;1558;42.700;23.360;2024-03-22T11:36:08;5.72;;;4.38;;
3095;SDS011;1558;42.700;23.360;2024-03-22T11:38:34;4.85;;;4.10;;
3095;SDS011;1558;42.700;23.360;2024-03-22T11:41:02;5.05;;;4.65;;
3095;SDS011;1558;42.700;23.360;2024-03-22T11:43:29;5.32;;;4.78;;
3095;SDS011;1558;42.700;23.360;2024-03-22T11:45:57;4.50;;;4.10;;
3095;SDS011;1558;42.700;23.360;2024-03-22T11:48:23;5.47;;;4.90;;
3095;SDS011;1558;42.700;23.360;2024-03-22T11:50:52;4.53;;;4.13;;
3095;SDS011;1558;42.700;23.360;2024-03-22T11:53:18;5.15;;;4.63;;
3095;SDS011;1558;42.700;23.360;2024-03-22T11:55:45;5.18;;;4.47;;
3095;SDS011;1558;42.700;23.360;2024-03-22T11:58:11;4.93;;;4.43;;
3095;SDS011;1558;42.700;23.360;2024-03-22T12:00:39;5.25;;;4.43;;
3095;SDS011;1558;42.700;23.360;2024-03-22T12:03:05;5.15;;;4.65;;
3095;SDS011;1558;42.700;23.360;2024-03-22T12:05:33;6.80;;;4.30;;
3095;SDS011;1558;42.700;23.360;2024-03-22T12:08:00;4.82;;;4.20;;
3095;SDS011;1558;42.700;23.360;2024-03-22T12:10:27;5.20;;;4.20;;
3095;SDS011;1558;42.700;23.360;2024-03-22T12:12:54;5.25;;;4.20;;
3095;SDS011;1558;42.700;23.360;2024-03-22T12:15:21;7.07;;;4.88;;
3095;SDS011;1558;42.700;23.360;2024-03-22T12:17:47;6.10;;;4.57;;
3095;SDS011;1558;42.700;23.360;2024-03-22T12:20:14;7.07;;;4.40;;
3095;SDS011;1558;42.700;23.360;2024-03-22T12:22:42;4.60;;;4.20;;
3095;SDS011;1558;42.700;23.360;2024-03-22T12:25:12;4.70;;;4.30;;
3095;SDS011;1558;42.700;23.360;2024-03-22T12:27:38;4.47;;;4.07;;
3095;SDS011;1558;42.700;23.360;2024-03-22T12:30:07;4.60;;;4.30;;
3095;SDS011;1558;42.700;23.360;2024-03-22T12:32:34;4.68;;;4.28;;
3095;SDS011;1558;42.700;23.360;2024-03-22T12:35:01;4.25;;;3.90;;
3095;SDS011;1558;42.700;23.360;2024-03-22T12:37:27;4.60;;;4.20;;
3095;SDS011;1558;42.700;23.360;2024-03-22T12:39:54;4.72;;;4.25;;
3095;SDS011;1558;42.700;23.360;2024-03-22T12:42:22;4.90;;;4.45;;
3095;SDS011;1558;42.700;23.360;2024-03-22T12:44:49;5.15;;;4.05;;
3095;SDS011;1558;42.700;23.360;2024-03-22T12:47:15;4.60;;;4.20;;
3095;SDS011;1558;42.700;23.360;2024-03-22T12:49:43;3.97;;;3.40;;
3095;SDS011;1558;42.700;23.360;2024-03-22T12:52:10;4.78;;;4.20;;
3095;SDS011;1558;42.700;23.360;2024-03-22T12:54:38;4.60;;;4.20;;
3095;SDS011;1558;42.700;23.360;2024-03-22T12:57:05;5.43;;;4.43;;
3095;SDS011;1558;42.700;23.360;2024-03-22T12:59:34;5.95;;;4.90;;
3095;SDS011;1558;42.700;23.360;2024-03-22T13:02:00;7.97;;;5.93;;
3095;SDS011;1558;42.700;23.360;2024-03-22T13:04:28;4.85;;;4.00;;
3095;SDS011;1558;42.700;23.360;2024-03-22T13:06:54;5.15;;;3.80;;
3095;SDS011;1558;42.700;23.360;2024-03-22T13:09:21;4.90;;;4.32;;
3095;SDS011;1558;42.700;23.360;2024-03-22T13:11:47;6.72;;;4.95;;
3095;SDS011;1558;42.700;23.360;2024-03-22T13:14:14;7.28;;;4.20;;
3095;SDS011;1558;42.700;23.360;2024-03-22T13:16:42;7.25;;;4.78;;
3095;SDS011;1558;42.700;23.360;2024-03-22T13:19:09;6.57;;;4.45;;
3095;SDS011;1558;42.700;23.360;2024-03-22T13:21:37;6.30;;;4.10;;
3095;SDS011;1558;42.700;23.360;2024-03-22T13:24:05;6.53;;;4.00;;
3095;SDS011;1558;42.700;23.360;2024-03-22T13:26:32;4.00;;;3.70;;
3095;SDS011;1558;42.700;23.360;2024-03-22T13:28:59;5.87;;;4.10;;
3095;SDS011;1558;42.700;23.360;2024-03-22T13:31:25;5.47;;;4.73;;
3095;SDS011;1558;42.700;23.360;2024-03-22T13:33:56;6.43;;;4.90;;
3095;SDS011;1558;42.700;23.360;2024-03-22T13:36:22;4.23;;;3.80;;
3095;SDS011;1558;42.700;23.360;2024-03-22T13:38:51;6.53;;;4.10;;
3095;SDS011;1558;42.700;23.360;2024-03-22T13:41:17;5.00;;;3.90;;
3095;SDS011;1558;42.700;23.360;2024-03-22T13:43:44;4.80;;;4.10;;
3095;SDS011;1558;42.700;23.360;2024-03-22T13:46:10;4.30;;;3.80;;
3095;SDS011;1558;42.700;23.360;2024-03-22T13:48:40;4.53;;;4.00;;
3095;SDS011;1558;42.700;23.360;2024-03-22T13:51:07;4.73;;;3.90;;
3095;SDS011;1558;42.700;23.360;2024-03-22T13:53:35;4.47;;;4.00;;
3095;SDS011;1558;42.700;23.360;2024-03-22T13:56:02;5.57;;;4.00;;
3095;SDS011;1558;42.700;23.360;2024-03-22T13:58:30;6.27;;;3.83;;
3095;SDS011;1558;42.700;23.360;2024-03-22T14:00:56;4.37;;;3.97;;
3095;SDS011;1558;42.700;23.360;2024-03-22T14:03:24;4.20;;;3.80;;
3095;SDS011;1558;42.700;23.360;2024-03-22T14:05:50;4.87;;;3.90;;
3095;SDS011;1558;42.700;23.360;2024-03-22T14:08:18;5.10;;;4.10;;
3095;SDS011;1558;42.700;23.360;2024-03-22T14:10:45;5.30;;;3.97;;
3095;SDS011;1558;42.700;23.360;2024-03-22T14:13:13;5.87;;;3.60;;
3095;SDS011;1558;42.700;23.360;2024-03-22T14:15:40;11.87;;;4.80;;
3095;SDS011;1558;42.700;23.360;2024-03-22T14:18:07;6.17;;;4.00;;
3095;SDS011;1558;42.700;23.360;2024-03-22T14:20:33;9.90;;;5.43;;
3095;SDS011;1558;42.700;23.360;2024-03-22T14:23:00;8.77;;;5.00;;
3095;SDS011;1558;42.700;23.360;2024-03-22T14:25:29;6.03;;;4.00;;
3095;SDS011;1558;42.700;23.360;2024-03-22T14:27:57;5.40;;;4.80;;
3095;SDS011;1558;42.700;23.360;2024-03-22T14:30:24;5.93;;;4.57;;
3095;SDS011;1558;42.700;23.360;2024-03-22T14:32:51;8.33;;;4.67;;
3095;SDS011;1558;42.700;23.360;2024-03-22T14:35:18;4.03;;;3.63;;
3095;SDS011;1558;42.700;23.360;2024-03-22T14:37:46;4.23;;;3.83;;
3095;SDS011;1558;42.700;23.360;2024-03-22T14:40:12;9.43;;;4.27;;
3095;SDS011;1558;42.700;23.360;2024-03-22T14:42:41;7.33;;;5.33;;
3095;SDS011;1558;42.700;23.360;2024-03-22T14:45:09;5.47;;;4.67;;